Zurich, Kansas
Current Conditions -  °F | °C
As of 9:35 AM on Thursday 18 Dec 2014 (Local Time) from KHYS Reporting Station
Overcast Overcast  
Wind Chill: 27°   Ceiling: 600
Heat Index: 27°   Visibility: 5mi
Dew Point: 18°   Wind: 0mph
Humidity: 69%   Direction: NA
Pressure: 30.18"   Gusts: NA
Location:  39.2151°N, 99.302°W
Report Text: KHYS 181535Z AUTO 00000KT 5SM BKN006 OVC022 M03/M08 A3018 RMK AO1
Loading
Personal Weather Stations






























Interactive Weather Map New forecast layout! Learn more

10-Day Weather Forecast

Advertisements
Track Severe Weather on mobile